Time;durP1;ratioP1;P1;durP2;ratioP2;P2;SDS_P1;SDS_P2;PMS_P1;PMS_P2;Temp;Humidity;BMP_temperature;BMP_pressure;BME280_temperature;BME280_humidity;BME280_pressure;Samples;Min_cycle;Max_cycle;Signal;HPM_P1;HPM_P2
2022/01/27 00:03:24;;;;;;;20.50;11.73;;;2.70;99.90;;;;;;4992496;28;20234;-57
2022/01/27 00:05:54;;;;;;;21.37;11.87;;;2.80;99.90;;;;;;5028246;28;20202;-57
2022/01/27 00:08:28;;;;;;;19.13;11.40;;;3.00;99.90;;;;;;5033772;28;20552;-57
2022/01/27 00:10:58;;;;;;;16.57;11.00;;;3.10;99.90;;;;;;5033772;28;20244;-57
2022/01/27 00:13:30;;;;;;;19.50;11.63;;;3.00;99.90;;;;;;5034203;28;20205;-58
2022/01/27 00:16:12;;;;;;;23.33;13.60;;;3.00;99.90;;;;;;5034156;28;20206;-57
2022/01/27 00:18:39;;;;;;;20.27;12.80;;;3.10;99.90;;;;;;5033587;28;20619;-57
2022/01/27 00:21:08;;;;;;;22.50;12.53;;;3.10;99.90;;;;;;5033762;28;20353;-57
2022/01/27 00:23:35;;;;;;;23.93;13.33;;;3.20;99.90;;;;;;5033604;28;20226;-58
2022/01/27 00:26:02;;;;;;;21.53;13.43;;;3.20;99.90;;;;;;5033585;28;20704;-58
2022/01/27 00:28:28;;;;;;;21.60;12.60;;;3.30;99.90;;;;;;5033595;28;20256;-58
2022/01/27 00:30:56;;;;;;;21.17;13.13;;;3.30;99.90;;;;;;5033817;28;20226;-58
2022/01/27 00:33:23;;;;;;;23.53;13.20;;;3.40;99.90;;;;;;5033518;28;20601;-58
2022/01/27 00:35:50;;;;;;;22.70;13.17;;;3.40;99.90;;;;;;5033500;28;20221;-58
2022/01/27 00:38:18;;;;;;;19.83;13.07;;;3.50;99.90;;;;;;5033594;28;20206;-58
2022/01/27 00:40:44;;;;;;;22.63;13.17;;;3.50;99.90;;;;;;5033307;28;20580;-57
2022/01/27 00:43:12;;;;;;;22.97;13.73;;;3.60;99.90;;;;;;5033339;28;20272;-58
2022/01/27 00:45:39;;;;;;;22.30;13.07;;;3.60;99.90;;;;;;5033421;28;20232;-58
2022/01/27 00:48:06;;;;;;;22.07;13.10;;;3.60;99.90;;;;;;5033032;28;20206;-57
2022/01/27 00:50:34;;;;;;;23.30;13.93;;;3.60;99.90;;;;;;5033068;28;20222;-58
2022/01/27 00:53:04;;;;;;;25.97;14.70;;;3.70;99.90;;;;;;5033296;28;20226;-57
2022/01/27 00:55:38;;;;;;;23.40;13.73;;;3.70;99.90;;;;;;5033362;28;20210;-61
2022/01/27 00:58:18;;;;;;;27.33;14.27;;;3.60;99.90;;;;;;5033020;28;20646;-55
2022/01/27 01:00:53;;;;;;;22.73;14.07;;;3.40;99.90;;;;;;5033620;28;20226;-55
2022/01/27 01:03:24;;;;;;;23.20;13.87;;;3.20;99.90;;;;;;5032888;28;20329;-55
2022/01/27 01:06:07;;;;;;;23.93;13.77;;;3.00;99.90;;;;;;5033112;28;20206;-61
2022/01/27 01:11:51;;;;;;;26.37;14.23;;;3.20;99.90;;;;;;5032854;28;20205;-54
2022/01/27 01:14:32;;;;;;;25.00;14.17;;;3.40;99.90;;;;;;5033074;28;20594;-55
2022/01/27 01:17:05;;;;;;;26.30;14.70;;;3.30;99.90;;;;;;5032689;28;20674;-55
2022/01/27 01:19:43;;;;;;;24.40;13.80;;;3.20;99.90;;;;;;5031974;28;20237;-54
2022/01/27 01:30:46;;;;;;;21.63;13.30;;;3.10;99.90;;;;;;5032705;28;20693;-55
2022/01/27 01:33:20;;;;;;;23.37;13.50;;;3.10;99.90;;;;;;5032810;28;20213;-54
2022/01/27 01:35:49;;;;;;;23.70;13.70;;;3.20;99.90;;;;;;5032555;28;20210;-54
2022/01/27 01:38:18;;;;;;;25.03;14.67;;;3.30;99.90;;;;;;5032289;28;20293;-54
2022/01/27 01:40:45;;;;;;;25.47;14.23;;;3.40;99.90;;;;;;5032284;28;20225;-54
2022/01/27 01:43:13;;;;;;;24.67;13.27;;;3.40;99.90;;;;;;5032428;28;20226;-55
2022/01/27 01:45:40;;;;;;;26.83;14.40;;;3.20;99.90;;;;;;5032509;28;20209;-54
2022/01/27 01:48:07;;;;;;;23.13;14.67;;;2.80;99.90;;;;;;5032229;28;20216;-54
2022/01/27 01:50:34;;;;;;;21.97;13.03;;;2.60;99.90;;;;;;5032553;28;20733;-54
2022/01/27 01:53:01;;;;;;;24.03;14.07;;;2.70;99.90;;;;;;5032490;28;20205;-54
2022/01/27 01:55:28;;;;;;;25.97;14.13;;;2.80;99.90;;;;;;5032521;28;20210;-54
2022/01/27 01:57:57;;;;;;;23.80;14.20;;;2.70;99.90;;;;;;5032075;28;20685;-55
2022/01/27 02:00:26;;;;;;;23.43;13.67;;;2.70;99.90;;;;;;5032434;28;20261;-54
2022/01/27 02:02:54;;;;;;;22.47;13.63;;;2.90;99.90;;;;;;5032489;28;20209;-55
2022/01/27 02:05:21;;;;;;;24.27;14.00;;;3.00;99.90;;;;;;5032642;28;20210;-55
2022/01/27 02:08:10;;;;;;;22.70;13.43;;;3.20;99.90;;;;;;5032158;28;20264;-56
2022/01/27 02:17:58;;;;;;;23.63;13.57;;;3.30;99.90;;;;;;5032028;28;20238;-54
2022/01/27 02:19:10;;;;;;;21.63;13.37;;;3.40;99.90;;;;;;5032219;28;20284;-54
2022/01/27 02:21:48;;;;;;;23.53;14.20;;;3.30;99.90;;;;;;5032123;28;20206;-55
2022/01/27 02:24:15;;;;;;;25.90;13.60;;;3.10;99.90;;;;;;5032359;28;20222;-54
2022/01/27 02:26:42;;;;;;;25.90;13.67;;;2.90;99.90;;;;;;5032295;28;20214;-54
2022/01/27 02:29:10;;;;;;;24.07;13.47;;;3.00;99.90;;;;;;5032747;28;20237;-55
2022/01/27 02:31:37;;;;;;;19.30;12.23;;;3.10;99.90;;;;;;5036069;28;20213;-54
2022/01/27 02:34:05;;;;;;;22.37;13.87;;;3.20;99.90;;;;;;5036039;28;20205;-55
2022/01/27 02:36:33;;;;;;;26.27;14.83;;;3.20;99.90;;;;;;5035843;28;20230;-54
2022/01/27 02:39:01;;;;;;;21.73;12.93;;;3.00;99.90;;;;;;5035362;28;20258;-55
2022/01/27 02:41:31;;;;;;;22.70;13.93;;;3.00;99.90;;;;;;5035732;28;20576;-54
2022/01/27 02:43:58;;;;;;;19.93;12.57;;;3.00;99.90;;;;;;5035628;28;20288;-55
2022/01/27 02:46:31;;;;;;;22.60;12.87;;;2.90;99.90;;;;;;5035641;28;20261;-56
2022/01/27 02:48:58;;;;;;;20.63;13.13;;;2.70;99.90;;;;;;5035323;28;20321;-54
2022/01/27 02:51:25;;;;;;;21.90;12.10;;;2.70;99.90;;;;;;5035432;28;20232;-55
2022/01/27 02:53:51;;;;;;;23.33;13.13;;;2.70;99.90;;;;;;5035468;28;20260;-56
2022/01/27 02:56:19;;;;;;;21.33;12.70;;;2.60;99.90;;;;;;5035195;28;20740;-55
2022/01/27 02:58:46;;;;;;;21.23;12.57;;;2.30;99.90;;;;;;5035105;28;20211;-55
2022/01/27 03:01:19;;;;;;;22.60;12.53;;;2.10;99.90;;;;;;5035309;28;20232;-54
2022/01/27 03:03:45;;;;;;;24.20;13.47;;;1.90;99.90;;;;;;5035332;28;20224;-55
2022/01/27 03:06:12;;;;;;;23.27;12.90;;;1.80;99.90;;;;;;5035084;28;20568;-56
2022/01/27 03:08:39;;;;;;;21.90;12.80;;;1.80;99.90;;;;;;5035120;28;20210;-55
2022/01/27 03:11:12;;;;;;;25.40;13.03;;;1.80;99.90;;;;;;5035250;28;20217;-55
2022/01/27 03:13:41;;;;;;;23.23;13.60;;;1.90;99.90;;;;;;5035311;28;20294;-55
2022/01/27 03:16:08;;;;;;;21.27;12.60;;;2.20;99.90;;;;;;5034969;28;20214;-55
2022/01/27 03:18:35;;;;;;;27.27;13.93;;;2.10;99.90;;;;;;5034582;28;20289;-55
2022/01/27 03:21:02;;;;;;;22.20;12.77;;;2.00;99.90;;;;;;5035332;28;20234;-54
2022/01/27 03:23:29;;;;;;;21.63;13.20;;;1.80;99.90;;;;;;5034874;28;20217;-55
2022/01/27 03:25:56;;;;;;;27.83;14.13;;;1.80;99.90;;;;;;5035132;28;20275;-54
2022/01/27 03:28:26;;;;;;;25.00;14.73;;;2.00;99.90;;;;;;5034814;28;20221;-55
2022/01/27 03:30:54;;;;;;;23.27;12.93;;;2.00;99.90;;;;;;5034945;28;20230;-55
2022/01/27 03:33:21;;;;;;;22.87;13.90;;;1.90;99.90;;;;;;5034846;28;20216;-54
2022/01/27 03:35:48;;;;;;;21.67;13.40;;;1.90;99.90;;;;;;5034839;28;20210;-55
2022/01/27 03:38:14;;;;;;;22.30;12.77;;;2.10;99.90;;;;;;5034610;28;20210;-56
2022/01/27 03:40:41;;;;;;;22.23;12.73;;;2.30;99.90;;;;;;5034108;28;20667;-55
2022/01/27 03:43:09;;;;;;;21.17;13.10;;;2.30;99.90;;;;;;5034442;28;20257;-55
2022/01/27 03:45:36;;;;;;;22.33;13.33;;;2.20;99.90;;;;;;5034354;28;20230;-55
2022/01/27 03:48:06;;;;;;;22.53;12.50;;;2.20;99.90;;;;;;5034362;28;20267;-55
2022/01/27 03:50:33;;;;;;;23.57;13.00;;;2.30;99.90;;;;;;5034418;28;20230;-55
2022/01/27 03:53:00;;;;;;;24.37;13.17;;;2.30;99.90;;;;;;5034367;28;20206;-54
2022/01/27 03:55:27;;;;;;;20.67;12.70;;;2.30;99.90;;;;;;5034635;28;20211;-56
2022/01/27 03:57:54;;;;;;;23.40;13.33;;;2.40;99.90;;;;;;5033971;28;20225;-55
2022/01/27 04:00:20;;;;;;;24.93;14.27;;;2.40;99.90;;;;;;5034033;28;20229;-55
2022/01/27 04:03:01;;;;;;;22.73;13.53;;;2.50;99.90;;;;;;5034068;28;20755;-56
2022/01/27 04:05:34;;;;;;;24.13;12.90;;;2.60;99.90;;;;;;5034177;28;20230;-56
2022/01/27 04:08:02;;;;;;;21.77;13.13;;;2.80;99.90;;;;;;5034281;28;20206;-57
2022/01/27 04:10:29;;;;;;;19.80;12.17;;;2.80;99.90;;;;;;5033873;28;20725;-56
2022/01/27 04:12:55;;;;;;;19.87;12.30;;;2.80;99.90;;;;;;5033990;28;20272;-56
2022/01/27 04:15:22;;;;;;;24.67;16.47;;;2.80;99.90;;;;;;5034000;28;20206;-56
2022/01/27 04:17:49;;;;;;;26.00;16.10;;;2.90;99.90;;;;;;5033499;28;20740;-55
2022/01/27 04:20:16;;;;;;;20.47;12.80;;;3.00;99.90;;;;;;5034069;28;20656;-56
2022/01/27 04:22:44;;;;;;;23.17;14.00;;;3.10;99.90;;;;;;5033829;28;20213;-56
2022/01/27 04:25:12;;;;;;;23.47;13.83;;;3.10;99.90;;;;;;5033633;28;20272;-55
2022/01/27 04:27:43;;;;;;;22.43;13.53;;;3.20;99.90;;;;;;5033685;28;20234;-56
2022/01/27 04:30:15;;;;;;;20.90;12.73;;;3.20;99.90;;;;;;5033744;28;20281;-57
2022/01/27 04:32:46;;;;;;;24.93;13.57;;;3.20;99.90;;;;;;5033442;28;20670;-56
2022/01/27 04:35:16;;;;;;;21.67;12.97;;;3.10;99.90;;;;;;5033544;28;20226;-55
2022/01/27 04:37:58;;;;;;;22.13;12.87;;;2.90;99.90;;;;;;5033361;28;20282;-55
2022/01/27 04:40:31;;;;;;;20.63;12.20;;;3.00;99.90;;;;;;5033430;28;20230;-56
2022/01/27 04:43:04;;;;;;;24.00;13.33;;;3.10;99.90;;;;;;5033093;28;20557;-55
2022/01/27 04:45:38;;;;;;;23.50;13.63;;;3.10;99.90;;;;;;5033551;28;20230;-55
2022/01/27 04:48:11;;;;;;;22.57;13.37;;;3.20;99.90;;;;;;5033015;28;20666;-55
2022/01/27 04:50:38;;;;;;;22.03;13.27;;;3.00;99.90;;;;;;5033321;28;20230;-55
2022/01/27 04:53:10;;;;;;;23.50;13.90;;;3.00;99.90;;;;;;5033152;28;20206;-56
2022/01/27 04:55:37;;;;;;;21.83;12.73;;;2.90;99.90;;;;;;5033597;28;20256;-56
2022/01/27 04:58:12;;;;;;;22.60;13.20;;;2.80;99.90;;;;;;5032988;28;20210;-55
2022/01/27 05:00:40;;;;;;;21.63;12.73;;;2.80;99.90;;;;;;5032838;28;20221;-55
2022/01/27 05:03:16;;;;;;;24.27;13.73;;;2.70;99.90;;;;;;5033197;28;20228;-55
2022/01/27 05:05:43;;;;;;;24.37;13.27;;;2.60;99.90;;;;;;5033276;28;20229;-56
2022/01/27 05:08:17;;;;;;;22.43;12.77;;;2.60;99.90;;;;;;5032660;28;20209;-55
2022/01/27 05:10:53;;;;;;;23.37;14.30;;;2.70;99.90;;;;;;5070771;22;20600;-60
2022/01/27 05:13:22;;;;;;;24.10;13.87;;;2.90;99.90;;;;;;5052592;28;20206;-60
2022/01/27 05:15:48;;;;;;;27.00;14.17;;;3.00;99.90;;;;;;5052808;28;20213;-61
2022/01/27 05:18:16;;;;;;;25.40;14.67;;;3.20;99.90;;;;;;5052313;28;20581;-60
2022/01/27 05:20:43;;;;;;;26.70;14.77;;;3.30;99.90;;;;;;5052610;28;20272;-61
2022/01/27 05:23:11;;;;;;;25.70;15.50;;;3.40;99.90;;;;;;5052607;28;20210;-60
2022/01/27 05:25:38;;;;;;;23.20;14.53;;;3.40;99.90;;;;;;5052222;28;20636;-60
2022/01/27 05:28:06;;;;;;;24.77;13.97;;;3.40;99.90;;;;;;5052423;28;20201;-61
2022/01/27 05:30:33;;;;;;;26.43;15.33;;;3.50;99.90;;;;;;5052671;28;20320;-61
2022/01/27 05:32:59;;;;;;;25.80;14.50;;;3.50;99.90;;;;;;5052449;28;20248;-60
2022/01/27 05:35:26;;;;;;;24.03;14.83;;;3.60;99.90;;;;;;5052256;28;20201;-61
2022/01/27 05:37:53;;;;;;;23.00;13.87;;;3.60;99.90;;;;;;5051947;28;20673;-61
2022/01/27 05:40:21;;;;;;;25.03;14.47;;;3.60;99.90;;;;;;5051961;28;20294;-60
2022/01/27 05:42:48;;;;;;;24.00;14.63;;;3.70;99.90;;;;;;5052133;28;20214;-60
2022/01/27 05:45:15;;;;;;;26.10;14.93;;;3.70;99.90;;;;;;5052060;28;20225;-61
2022/01/27 05:47:41;;;;;;;24.07;14.23;;;3.70;99.90;;;;;;5052164;28;20232;-60
2022/01/27 05:50:09;;;;;;;26.77;15.43;;;3.50;99.90;;;;;;5052248;28;20222;-60
2022/01/27 05:52:36;;;;;;;29.07;15.90;;;3.30;99.90;;;;;;5051734;28;20201;-59
2022/01/27 05:55:03;;;;;;;27.93;16.03;;;3.40;99.90;;;;;;5052235;28;20206;-61
2022/01/27 05:57:31;;;;;;;25.07;14.57;;;3.40;99.90;;;;;;5051756;28;20221;-61
2022/01/27 05:59:58;;;;;;;25.87;15.30;;;3.40;99.90;;;;;;5052073;28;20316;-61
2022/01/27 06:02:25;;;;;;;27.20;14.83;;;3.30;99.90;;;;;;5051750;28;20209;-61
2022/01/27 06:04:52;;;;;;;32.83;16.00;;;3.10;99.90;;;;;;5051000;28;20316;-60
2022/01/27 06:07:18;;;;;;;27.57;15.57;;;3.00;99.90;;;;;;5051392;28;20284;-60
2022/01/27 06:09:45;;;;;;;31.20;17.43;;;2.80;99.90;;;;;;5051675;28;20237;-61
2022/01/27 06:12:12;;;;;;;34.03;17.23;;;2.80;99.90;;;;;;5051552;28;20245;-60
2022/01/27 06:14:40;;;;;;;35.40;17.87;;;2.90;99.90;;;;;;5052016;28;20204;-61
2022/01/27 06:17:07;;;;;;;34.77;17.87;;;2.90;99.90;;;;;;5051742;28;20205;-61
2022/01/27 06:19:33;;;;;;;34.73;18.53;;;2.90;99.90;;;;;;5051944;28;20283;-61
2022/01/27 06:22:00;;;;;;;35.30;18.30;;;3.00;99.90;;;;;;5051534;28;20209;-61
2022/01/27 06:24:27;;;;;;;37.93;19.67;;;3.00;99.90;;;;;;5051443;28;20535;-60
2022/01/27 06:26:55;;;;;;;35.47;19.10;;;3.10;99.90;;;;;;5052038;28;20307;-61
2022/01/27 06:29:22;;;;;;;36.27;19.10;;;3.20;99.90;;;;;;5051431;28;20227;-61
2022/01/27 06:31:50;;;;;;;39.77;18.13;;;3.20;99.90;;;;;;5051747;28;20205;-60
2022/01/27 06:34:17;;;;;;;38.63;19.13;;;3.10;99.90;;;;;;5051557;28;20255;-60
2022/01/27 06:36:44;;;;;;;36.67;18.77;;;3.00;99.90;;;;;;5051890;28;20202;-60
2022/01/27 06:39:10;;;;;;;38.47;19.30;;;3.00;99.90;;;;;;5051402;28;20206;-61
2022/01/27 06:41:37;;;;;;;35.90;18.67;;;2.80;99.90;;;;;;5051353;28;20210;-60
2022/01/27 06:44:05;;;;;;;34.57;19.50;;;2.80;99.90;;;;;;5051674;28;20206;-61
2022/01/27 06:46:32;;;;;;;33.57;18.93;;;2.60;99.90;;;;;;5051410;28;20299;-61
2022/01/27 06:49:00;;;;;;;39.10;20.20;;;2.50;99.90;;;;;;5051039;28;20218;-60
2022/01/27 06:51:28;;;;;;;35.17;18.47;;;2.50;99.90;;;;;;5051736;28;20323;-60
2022/01/27 06:53:55;;;;;;;32.80;18.30;;;2.50;99.90;;;;;;5051419;28;20205;-60
2022/01/27 06:56:22;;;;;;;35.90;18.80;;;2.40;99.90;;;;;;5051667;28;20205;-60
2022/01/27 06:58:49;;;;;;;38.10;18.77;;;2.20;99.90;;;;;;5051269;28;20206;-60
2022/01/27 07:01:15;;;;;;;35.70;18.67;;;2.20;99.90;;;;;;5051265;28;20287;-59
2022/01/27 07:03:42;;;;;;;34.83;19.60;;;2.30;99.90;;;;;;5051266;28;20255;-60
2022/01/27 07:06:11;;;;;;;32.57;17.87;;;2.40;99.90;;;;;;5051390;28;20644;-60
2022/01/27 07:08:37;;;;;;;33.07;17.17;;;2.50;99.90;;;;;;5051401;28;20201;-59
2022/01/27 07:11:04;;;;;;;30.50;17.03;;;2.50;99.90;;;;;;5051145;28;20237;-61
2022/01/27 07:13:31;;;;;;;36.30;18.10;;;2.50;99.90;;;;;;5051313;28;20240;-60
2022/01/27 07:15:57;;;;;;;31.73;17.33;;;2.50;99.90;;;;;;5052821;28;20251;-61
2022/01/27 07:18:24;;;;;;;36.70;18.73;;;2.60;99.90;;;;;;5054764;28;20205;-60
2022/01/27 07:20:51;;;;;;;31.23;18.37;;;2.60;99.90;;;;;;5055378;28;20276;-61
2022/01/27 07:23:20;;;;;;;34.47;16.77;;;2.80;99.90;;;;;;5054834;28;20206;-61
2022/01/27 07:25:46;;;;;;;30.93;16.83;;;2.70;99.90;;;;;;5054455;28;20286;-61
2022/01/27 07:28:13;;;;;;;27.47;15.27;;;2.50;99.90;;;;;;5054387;28;20209;-61
2022/01/27 07:30:40;;;;;;;27.97;15.07;;;2.40;99.90;;;;;;5054358;28;20229;-61
2022/01/27 07:33:06;;;;;;;29.57;16.23;;;2.30;99.90;;;;;;5054739;28;20201;-60
2022/01/27 07:35:33;;;;;;;29.53;16.33;;;2.20;99.90;;;;;;5054490;28;20673;-60
2022/01/27 07:38:00;;;;;;;34.37;17.60;;;2.40;99.90;;;;;;5054398;28;20213;-61
2022/01/27 07:40:30;;;;;;;36.43;19.83;;;2.50;99.90;;;;;;5054367;28;20571;-60
2022/01/27 07:42:57;;;;;;;36.30;18.67;;;2.30;99.90;;;;;;5054591;28;20206;-60
2022/01/27 07:45:23;;;;;;;38.07;18.63;;;2.10;99.90;;;;;;5054417;28;20226;-60
2022/01/27 07:47:50;;;;;;;33.53;17.63;;;2.00;99.90;;;;;;5054193;28;20206;-62
2022/01/27 07:50:17;;;;;;;31.17;17.40;;;2.10;99.90;;;;;;5054494;28;20268;-62
2022/01/27 07:52:43;;;;;;;37.70;18.13;;;2.10;99.90;;;;;;5054318;28;20206;-61
2022/01/27 07:55:11;;;;;;;33.53;17.27;;;2.00;99.90;;;;;;5054070;28;20252;-61
2022/01/27 07:57:39;;;;;;;32.10;17.17;;;1.90;99.90;;;;;;5053787;28;20205;-61
2022/01/27 08:00:09;;;;;;;32.47;16.17;;;2.20;99.90;;;;;;5054241;28;20229;-61
2022/01/27 08:02:36;;;;;;;30.37;16.17;;;2.30;99.90;;;;;;5053782;28;20683;-61
2022/01/27 08:05:03;;;;;;;29.70;16.17;;;2.40;99.90;;;;;;5053770;28;20209;-61
2022/01/27 08:07:30;;;;;;;33.27;17.67;;;2.40;99.90;;;;;;5054003;28;20201;-61
2022/01/27 08:09:56;;;;;;;31.77;17.70;;;2.30;99.90;;;;;;5053653;28;20233;-61
2022/01/27 08:12:23;;;;;;;34.37;18.10;;;2.30;99.90;;;;;;5053581;28;20244;-60
2022/01/27 08:14:51;;;;;;;33.07;18.10;;;2.30;99.90;;;;;;5053789;28;20209;-61
2022/01/27 08:17:18;;;;;;;32.63;17.20;;;2.40;99.90;;;;;;5053453;28;20300;-61
2022/01/27 08:19:45;;;;;;;30.63;16.70;;;2.50;99.90;;;;;;5053520;28;20770;-61
2022/01/27 08:22:11;;;;;;;33.40;18.27;;;2.50;99.90;;;;;;5053610;28;20275;-61
2022/01/27 08:24:39;;;;;;;32.67;17.23;;;2.60;99.90;;;;;;5053404;28;20800;-60
2022/01/27 08:27:08;;;;;;;36.60;19.30;;;2.60;99.90;;;;;;5052605;28;20229;-60
2022/01/27 08:29:39;;;;;;;35.27;19.03;;;2.70;99.90;;;;;;5053011;28;20685;-60
2022/01/27 08:32:14;;;;;;;35.43;18.73;;;2.70;99.90;;;;;;5053492;28;20243;-60
2022/01/27 08:34:42;;;;;;;33.90;18.13;;;2.80;99.90;;;;;;5053345;28;20205;-61
2022/01/27 08:37:10;;;;;;;35.63;19.03;;;2.90;99.90;;;;;;5053122;28;20198;-61
2022/01/27 08:39:38;;;;;;;35.10;18.63;;;2.90;99.90;;;;;;5053057;28;20255;-61
2022/01/27 08:42:06;;;;;;;30.07;17.30;;;2.90;99.90;;;;;;5053352;28;20217;-61
2022/01/27 08:44:32;;;;;;;30.60;16.30;;;2.70;99.90;;;;;;5053289;28;20210;-61
2022/01/27 08:46:59;;;;;;;30.30;16.60;;;2.70;99.90;;;;;;5053073;28;20249;-62
2022/01/27 08:49:28;;;;;;;26.83;15.17;;;2.80;99.90;;;;;;5052879;28;20257;-61
2022/01/27 08:51:56;;;;;;;30.17;16.17;;;2.90;99.90;;;;;;5052637;28;20572;-62
2022/01/27 08:54:23;;;;;;;28.97;17.00;;;2.90;99.90;;;;;;5052928;28;20216;-61
2022/01/27 08:56:50;;;;;;;29.80;16.60;;;3.00;99.90;;;;;;5052577;28;20201;-62
2022/01/27 08:59:17;;;;;;;28.30;15.43;;;3.10;99.90;;;;;;5052582;28;20260;-61
2022/01/27 09:01:44;;;;;;;32.57;19.37;;;3.10;99.90;;;;;;5052720;28;20698;-62
2022/01/27 09:04:11;;;;;;;36.83;18.93;;;3.20;99.90;;;;;;5052613;28;20739;-61
2022/01/27 09:06:39;;;;;;;41.70;20.30;;;3.20;99.90;;;;;;5052338;28;20232;-61
2022/01/27 09:09:06;;;;;;;37.47;19.40;;;3.20;99.90;;;;;;5052237;28;20240;-61
2022/01/27 09:11:33;;;;;;;41.83;20.57;;;3.30;99.90;;;;;;5052579;28;20681;-61
2022/01/27 09:14:01;;;;;;;38.93;19.63;;;3.30;99.90;;;;;;5052280;28;20312;-61
2022/01/27 09:16:31;;;;;;;39.80;21.23;;;3.30;99.90;;;;;;5052660;28;20610;-62
2022/01/27 09:19:00;;;;;;;37.27;18.03;;;3.30;99.90;;;;;;5051922;28;20205;-61
2022/01/27 09:21:38;;;;;;;31.83;17.13;;;3.30;99.90;;;;;;5052483;28;20717;-61
2022/01/27 09:24:06;;;;;;;32.30;17.00;;;3.40;99.90;;;;;;5052350;28;20205;-62
2022/01/27 09:26:43;;;;;;;31.50;17.20;;;3.40;99.90;;;;;;5052174;28;20259;-61
2022/01/27 09:29:10;;;;;;;33.40;16.70;;;3.60;99.90;;;;;;5051796;28;20227;-61
2022/01/27 09:31:37;;;;;;;33.63;16.13;;;3.60;99.90;;;;;;5051985;28;20701;-61
2022/01/27 09:34:04;;;;;;;28.50;15.33;;;3.70;99.90;;;;;;5052227;28;20209;-61
2022/01/27 09:36:30;;;;;;;32.30;16.30;;;3.70;99.90;;;;;;5052056;28;20213;-61
2022/01/27 09:38:57;;;;;;;30.80;16.73;;;3.70;99.90;;;;;;5051144;28;20217;-61
2022/01/27 09:41:27;;;;;;;29.33;15.30;;;3.80;99.90;;;;;;5052060;28;20225;-61
2022/01/27 09:43:54;;;;;;;28.53;15.83;;;3.90;99.90;;;;;;5052588;28;20201;-61
2022/01/27 09:46:22;;;;;;;28.10;14.40;;;4.00;99.90;;;;;;5051920;28;20762;-61
2022/01/27 09:48:50;;;;;;;27.80;15.27;;;4.10;99.90;;;;;;5051819;28;20209;-61
2022/01/27 09:51:27;;;;;;;25.43;13.70;;;4.30;99.90;;;;;;5051708;28;20272;-61
2022/01/27 09:53:56;;;;;;;23.53;13.47;;;4.50;99.90;;;;;;5051758;28;20283;-61
2022/01/27 09:56:25;;;;;;;24.17;13.40;;;4.60;99.90;;;;;;5051472;28;20215;-62
2022/01/27 09:58:51;;;;;;;25.63;13.23;;;4.60;99.90;;;;;;5051346;28;20700;-62
2022/01/27 10:01:18;;;;;;;30.47;14.30;;;4.70;99.90;;;;;;5051868;28;20263;-62
2022/01/27 10:03:56;;;;;;;21.60;12.43;;;4.70;99.90;;;;;;5051611;28;20201;-62
2022/01/27 10:06:27;;;;;;;24.43;12.30;;;4.80;99.90;;;;;;5051379;28;20221;-62
2022/01/27 10:09:14;;;;;;;23.83;12.97;;;4.80;99.90;;;;;;5051265;28;20205;-61
2022/01/27 10:11:44;;;;;;;24.30;13.30;;;4.90;99.90;;;;;;5052018;28;20237;-62
2022/01/27 10:14:23;;;;;;;24.37;13.10;;;4.90;99.90;;;;;;5051776;28;20300;-62
2022/01/27 10:16:53;;;;;;;23.13;13.07;;;4.90;99.90;;;;;;5051409;28;20255;-62
2022/01/27 10:19:20;;;;;;;24.07;13.23;;;5.00;99.90;;;;;;5051291;28;20612;-62
2022/01/27 10:21:47;;;;;;;21.73;12.67;;;4.90;99.90;;;;;;5051363;28;20205;-61
2022/01/27 10:24:18;;;;;;;23.87;13.37;;;4.80;99.90;;;;;;5051577;28;20210;-61
2022/01/27 10:26:53;;;;;;;24.20;13.87;;;4.80;99.90;;;;;;5051569;28;20316;-63
2022/01/27 10:29:33;;;;;;;24.57;14.00;;;5.00;99.90;;;;;;5051317;28;20717;-60
2022/01/27 10:32:06;;;;;;;24.70;13.33;;;5.00;99.90;;;;;;5051324;28;20210;-60
2022/01/27 10:34:54;;;;;;;25.70;14.03;;;5.00;99.90;;;;;;5051711;28;20233;-60
2022/01/27 10:37:21;;;;;;;22.37;13.63;;;5.00;99.90;;;;;;5051886;28;20220;-61
2022/01/27 10:39:48;;;;;;;20.57;12.23;;;5.10;99.90;;;;;;5051154;28;20221;-60
2022/01/27 10:42:20;;;;;;;24.57;13.43;;;5.10;99.90;;;;;;5051387;28;20267;-63
2022/01/27 10:44:55;;;;;;;24.57;13.50;;;5.30;99.90;;;;;;5051578;28;20266;-61
2022/01/27 10:47:27;;;;;;;20.20;12.80;;;5.40;99.90;;;;;;5051692;28;20225;-61
2022/01/27 10:49:59;;;;;;;22.40;13.67;;;5.50;99.90;;;;;;5051126;28;20312;-61
2022/01/27 10:52:35;;;;;;;22.40;12.57;;;5.70;99.90;;;;;;5055098;28;20680;-61
2022/01/27 10:55:08;;;;;;;24.50;13.50;;;5.90;99.90;;;;;;5055371;28;20190;-61
2022/01/27 10:57:35;;;;;;;24.93;12.93;;;6.00;99.90;;;;;;5054968;28;20210;-61
2022/01/27 11:00:09;;;;;;;19.47;12.93;;;6.10;99.90;;;;;;5055022;28;20636;-61
2022/01/27 11:02:49;;;;;;;20.33;12.10;;;6.20;99.90;;;;;;5055255;28;20213;-61
2022/01/27 11:05:22;;;;;;;19.30;11.77;;;6.10;99.90;;;;;;5054602;28;20206;-62
2022/01/27 11:07:49;;;;;;;20.43;11.37;;;5.90;99.90;;;;;;5054259;28;20252;-62
2022/01/27 11:10:17;;;;;;;23.33;12.03;;;5.90;99.90;;;;;;5054968;28;20252;-61
2022/01/27 11:12:44;;;;;;;19.73;12.13;;;5.80;99.90;;;;;;5054759;28;20212;-60
2022/01/27 11:15:11;;;;;;;18.13;11.30;;;5.90;99.90;;;;;;5054423;28;20209;-60
2022/01/27 11:17:40;;;;;;;18.10;11.60;;;6.00;99.90;;;;;;5054201;28;20225;-60
2022/01/27 11:20:24;;;;;;;20.77;11.77;;;6.00;99.90;;;;;;5054346;28;20229;-62
2022/01/27 11:23:11;;;;;;;20.20;11.23;;;6.10;99.90;;;;;;5054547;28;20660;-62
2022/01/27 11:25:52;;;;;;;19.97;11.13;;;6.10;99.90;;;;;;5054491;28;20205;-62
2022/01/27 11:28:20;;;;;;;20.33;11.63;;;6.10;99.90;;;;;;5054101;28;20212;-61
2022/01/27 11:30:57;;;;;;;17.27;11.30;;;6.10;99.90;;;;;;5054424;28;20234;-61
2022/01/27 11:33:31;;;;;;;17.57;10.90;;;6.00;99.90;;;;;;5054655;28;20256;-62
2022/01/27 11:36:12;;;;;;;17.27;10.33;;;6.10;99.90;;;;;;5054601;28;20318;-61
2022/01/27 11:38:43;;;;;;;18.47;10.57;;;6.10;99.90;;;;;;5054083;28;20530;-61
2022/01/27 11:41:36;;;;;;;22.07;11.70;;;6.30;99.90;;;;;;5054423;28;20320;-61
2022/01/27 11:44:21;;;;;;;16.23;10.57;;;6.30;99.90;;;;;;5054544;28;20221;-62
2022/01/27 11:47:21;;;;;;;18.33;9.77;;;6.30;99.90;;;;;;5054203;28;20221;-61
2022/01/27 11:49:58;;;;;;;16.63;10.17;;;6.40;99.90;;;;;;5054236;28;20264;-62
2022/01/27 11:52:28;;;;;;;18.73;10.77;;;6.40;99.90;;;;;;5054062;28;20699;-62
2022/01/27 11:55:40;;;;;;;19.70;10.90;;;6.50;99.90;;;;;;5054344;28;20245;-62
2022/01/27 11:58:25;;;;;;;15.87;9.50;;;6.50;99.90;;;;;;5053957;28;20213;-62
2022/01/27 12:01:07;;;;;;;18.90;10.33;;;6.50;99.90;;;;;;5054129;28;20279;-62
2022/01/27 12:03:34;;;;;;;18.13;10.63;;;6.70;99.90;;;;;;5052948;28;20248;-62
2022/01/27 12:06:19;;;;;;;16.10;9.60;;;6.80;99.90;;;;;;5053976;28;20210;-61
2022/01/27 12:08:45;;;;;;;18.27;10.93;;;6.90;99.90;;;;;;5053779;28;20580;-61
2022/01/27 12:11:47;;;;;;;15.07;10.27;;;6.80;99.90;;;;;;5053394;28;20609;-61
2022/01/27 12:14:17;;;;;;;18.17;11.60;;;6.80;99.90;;;;;;5053967;28;20248;-62
2022/01/27 12:16:57;;;;;;;15.90;10.60;;;6.90;99.90;;;;;;5053591;28;20198;-62
2022/01/27 12:19:24;;;;;;;20.73;13.07;;;6.90;99.90;;;;;;5053248;28;20571;-62
2022/01/27 12:22:03;;;;;;;21.63;12.23;;;7.00;99.90;;;;;;5053389;28;20209;-62
2022/01/27 12:24:32;;;;;;;17.73;10.83;;;7.10;99.90;;;;;;5053222;28;20241;-61
2022/01/27 12:27:02;;;;;;;18.70;11.07;;;7.10;99.90;;;;;;5053616;28;20234;-62
2022/01/27 12:29:35;;;;;;;18.53;10.60;;;7.00;99.90;;;;;;5053357;28;20222;-62
2022/01/27 12:32:04;;;;;;;16.30;10.77;;;7.00;99.90;;;;;;5053722;28;20650;-62
2022/01/27 12:34:31;;;;;;;16.93;11.17;;;7.00;99.90;;;;;;5053050;28;20308;-60
2022/01/27 12:37:00;;;;;;;17.23;11.17;;;7.10;99.90;;;;;;5052924;28;20673;-62
2022/01/27 12:39:29;;;;;;;19.63;11.63;;;7.10;99.90;;;;;;5052649;28;20302;-63
2022/01/27 12:41:55;;;;;;;20.90;12.27;;;7.10;99.90;;;;;;5053142;28;20218;-63
2022/01/27 12:44:25;;;;;;;18.37;11.47;;;7.00;99.90;;;;;;5053166;28;20212;-61
2022/01/27 12:47:12;;;;;;;18.52;12.55;;;7.00;99.90;;;;;;5052453;28;20538;-63
2022/01/27 12:49:45;;;;;;;19.43;12.23;;;6.80;99.90;;;;;;5052396;28;20342;-62
2022/01/27 12:52:15;;;;;;;17.17;11.13;;;6.60;99.90;;;;;;5049835;28;20209;-63
2022/01/27 12:54:43;;;;;;;19.00;12.13;;;6.60;99.90;;;;;;5053215;28;20708;-63
2022/01/27 12:57:10;;;;;;;23.93;13.90;;;6.60;99.90;;;;;;5052993;28;20610;-63
2022/01/27 12:59:41;;;;;;;18.80;11.60;;;6.80;99.90;;;;;;5052527;28;20229;-63
2022/01/27 13:02:09;;;;;;;19.27;11.60;;;6.90;99.90;;;;;;5052321;28;20244;-63
2022/01/27 13:04:37;;;;;;;19.23;11.37;;;7.00;99.90;;;;;;5052793;28;20255;-63
2022/01/27 13:07:05;;;;;;;20.30;12.30;;;7.10;99.90;;;;;;5052397;28;20652;-63
2022/01/27 13:09:34;;;;;;;18.57;10.93;;;7.10;99.90;;;;;;5052100;28;20241;-60
2022/01/27 13:12:12;;;;;;;15.60;10.20;;;7.00;99.90;;;;;;5052559;28;20348;-65